createdAt,value
2023-02-13T00:00:25.628Z,34.47
2023-02-13T00:02:53.312Z,36.55
2023-02-13T00:05:20.674Z,33.17
2023-02-13T00:07:48.173Z,32.08
2023-02-13T00:10:15.992Z,30.55
2023-02-13T00:12:43.381Z,30.40
2023-02-13T00:15:10.920Z,32.20
2023-02-13T00:17:38.742Z,31.40
2023-02-13T00:20:06.657Z,30.70
2023-02-13T00:22:37.446Z,31.50
2023-02-13T00:25:06.434Z,31.15
2023-02-13T00:27:34.234Z,27.55
2023-02-13T00:30:02.946Z,27.80
2023-02-13T00:32:31.785Z,28.40
2023-02-13T00:34:59.225Z,26.67
2023-02-13T00:37:26.659Z,24.73
2023-02-13T00:39:54.308Z,28.30
2023-02-13T00:42:26.387Z,21.75
2023-02-13T00:44:54.228Z,24.83
2023-02-13T00:47:21.954Z,23.52
2023-02-13T00:49:50.304Z,22.90
2023-02-13T00:52:18.041Z,27.55
2023-02-13T00:54:46.738Z,23.48
2023-02-13T00:57:14.127Z,23.90
2023-02-13T00:59:42.774Z,23.65
2023-02-13T01:02:10.182Z,25.23
2023-02-13T01:04:37.630Z,26.42
2023-02-13T01:07:05.369Z,23.85
2023-02-13T01:09:32.919Z,24.87
2023-02-13T01:12:00.331Z,24.85
2023-02-13T01:14:27.962Z,27.20
2023-02-13T01:16:55.367Z,21.73
2023-02-13T01:19:23.018Z,22.92
2023-02-13T01:21:52.552Z,22.87
2023-02-13T01:24:19.933Z,23.08
2023-02-13T01:26:47.310Z,19.17
2023-02-13T01:29:15.047Z,23.25
2023-02-13T01:31:42.445Z,25.83
2023-02-13T01:34:09.904Z,21.17
2023-02-13T01:36:37.600Z,23.60
2023-02-13T01:39:05.070Z,24.37
2023-02-13T01:41:32.555Z,22.00
2023-02-13T01:44:01.793Z,24.50
2023-02-13T01:46:37.918Z,23.52
2023-02-13T01:49:10.670Z,27.65
2023-02-13T01:51:38.300Z,26.65
2023-02-13T01:54:08.312Z,27.40
2023-02-13T01:56:45.133Z,28.58
2023-02-13T01:59:17.538Z,28.17
2023-02-13T02:01:45.267Z,30.55
2023-02-13T02:04:23.462Z,28.58
2023-02-13T02:07:07.706Z,24.12
2023-02-13T02:09:38.626Z,27.30
2023-02-13T02:12:12.490Z,27.55
2023-02-13T02:14:41.269Z,28.60
2023-02-13T02:17:09.422Z,23.65
2023-02-13T02:19:59.780Z,26.00
2023-02-13T02:22:49.552Z,29.27
2023-02-13T02:25:43.586Z,27.48
2023-02-13T02:28:37.218Z,24.08
2023-02-13T02:31:14.261Z,30.48
2023-02-13T02:33:53.996Z,24.15
2023-02-13T02:36:47.071Z,28.27
2023-02-13T02:39:27.202Z,22.75
2023-02-13T02:42:00.946Z,22.37
2023-02-13T02:44:37.532Z,25.48
2023-02-13T02:47:33.342Z,25.27
2023-02-13T02:50:24.992Z,21.90
2023-02-13T02:53:14.197Z,23.67
2023-02-13T02:55:56.478Z,23.85
2023-02-13T02:58:49.479Z,24.20
2023-02-13T03:01:41.897Z,24.27
2023-02-13T03:04:37.575Z,22.37
2023-02-13T03:07:08.289Z,24.35
2023-02-13T03:10:04.694Z,20.85
2023-02-13T03:13:02.940Z,22.23
2023-02-13T03:15:30.655Z,18.70
2023-02-13T03:18:17.369Z,21.65
2023-02-13T03:21:24.168Z,19.27
2023-02-13T03:23:54.780Z,23.05
2023-02-13T03:26:46.166Z,18.12
2023-02-13T03:29:47.673Z,23.02
2023-02-13T03:32:30.726Z,20.27
2023-02-13T03:35:43.425Z,24.12
2023-02-13T03:38:16.602Z,26.85
2023-02-13T03:41:18.370Z,27.48
2023-02-13T03:44:04.262Z,27.08
2023-02-13T03:46:34.666Z,23.05
2023-02-13T03:49:40.472Z,25.35
2023-02-13T03:52:13.949Z,20.15
2023-02-13T03:55:04.951Z,24.10
2023-02-13T03:57:52.434Z,25.52
2023-02-13T04:00:20.982Z,21.58
2023-02-13T04:03:11.076Z,22.10
2023-02-13T04:05:43.251Z,21.92
2023-02-13T04:10:47.959Z,21.23
2023-02-13T04:13:26.852Z,21.58
2023-02-13T04:16:03.583Z,28.70
2023-02-13T04:18:32.769Z,23.30
2023-02-13T04:21:07.735Z,22.50
2023-02-13T04:23:36.908Z,19.77
2023-02-13T04:26:08.353Z,19.80
2023-02-13T04:28:36.109Z,19.77
2023-02-13T04:31:03.641Z,18.30
2023-02-13T04:33:31.054Z,20.35
2023-02-13T04:35:58.696Z,19.05
2023-02-13T04:38:26.099Z,17.60
2023-02-13T04:40:53.494Z,20.50
2023-02-13T04:43:21.222Z,19.92
2023-02-13T04:45:51.998Z,23.10
2023-02-13T04:48:19.345Z,21.87
2023-02-13T04:50:48.029Z,21.08
2023-02-13T04:53:15.433Z,22.80
2023-02-13T04:55:43.259Z,21.52
2023-02-13T04:58:11.002Z,18.37
2023-02-13T05:00:38.422Z,20.12
2023-02-13T05:03:10.660Z,18.50
2023-02-13T05:05:38.911Z,19.15
2023-02-13T05:08:07.390Z,19.90
2023-02-13T05:10:35.100Z,22.80
2023-02-13T05:13:02.828Z,20.65
2023-02-13T05:15:30.198Z,21.65
2023-02-13T05:17:57.679Z,22.17
2023-02-13T05:20:25.582Z,23.20
2023-02-13T05:23:12.797Z,21.80
2023-02-13T05:25:41.617Z,21.77
2023-02-13T05:28:28.085Z,26.75
2023-02-13T05:30:56.467Z,22.42
2023-02-13T05:33:24.486Z,22.25
2023-02-13T05:35:51.973Z,21.58
2023-02-13T05:38:19.726Z,21.77
2023-02-13T05:40:47.131Z,25.77
2023-02-13T05:43:14.598Z,26.20
2023-02-13T05:45:42.293Z,27.05
2023-02-13T05:48:09.628Z,28.95
2023-02-13T05:50:37.017Z,28.40
2023-02-13T05:53:04.769Z,32.03
2023-02-13T05:55:32.174Z,28.80
2023-02-13T05:57:59.566Z,31.40
2023-02-13T06:00:27.217Z,33.42
2023-02-13T06:02:55.125Z,31.12
2023-02-13T06:05:22.544Z,27.40
2023-02-13T06:07:49.890Z,25.42
2023-02-13T06:10:17.656Z,24.83
2023-02-13T06:12:45.108Z,30.85
2023-02-13T06:15:12.532Z,28.15
2023-02-13T06:17:40.203Z,28.02
2023-02-13T06:20:08.212Z,32.40
2023-02-13T06:22:35.649Z,30.90
2023-02-13T06:25:03.759Z,34.08
2023-02-13T06:27:31.374Z,29.08
2023-02-13T06:29:58.789Z,26.33
2023-02-13T06:32:26.447Z,38.15
2023-02-13T06:34:53.882Z,29.90
2023-02-13T06:37:21.311Z,32.38
2023-02-13T06:39:48.975Z,32.17
2023-02-13T06:42:18.679Z,32.33
2023-02-13T06:44:46.132Z,33.72
2023-02-13T06:47:13.800Z,29.10
2023-02-13T06:49:41.174Z,27.55
2023-02-13T06:52:08.606Z,29.20
2023-02-13T06:54:46.767Z,34.75
2023-02-13T06:57:15.984Z,33.45
2023-02-13T06:59:44.042Z,39.72
2023-02-13T07:02:12.279Z,37.30
2023-02-13T07:04:40.163Z,36.83
2023-02-13T07:07:07.793Z,31.83
2023-02-13T07:09:35.171Z,32.95
2023-02-13T07:12:04.263Z,30.75
2023-02-13T07:14:31.952Z,29.37
2023-02-13T07:16:59.626Z,37.47
2023-02-13T07:19:27.273Z,30.95
2023-02-13T07:21:55.021Z,29.75
2023-02-13T07:24:22.392Z,30.23
2023-02-13T07:26:49.808Z,24.95
2023-02-13T07:29:17.439Z,25.23
2023-02-13T07:31:45.036Z,23.62
2023-02-13T07:34:12.450Z,24.92
2023-02-13T07:36:40.109Z,24.65
2023-02-13T07:39:07.550Z,21.90
2023-02-13T07:41:35.067Z,25.37
2023-02-13T07:44:02.741Z,22.62
2023-02-13T07:46:30.191Z,24.58
2023-02-13T07:48:57.551Z,26.10
2023-02-13T07:51:25.407Z,27.50
2023-02-13T07:53:53.000Z,26.27
2023-02-13T07:56:20.442Z,23.40
2023-02-13T07:58:48.504Z,22.65
2023-02-13T08:01:16.921Z,24.65
2023-02-13T08:03:48.221Z,24.65
2023-02-13T08:06:15.589Z,25.00
2023-02-13T08:08:43.133Z,27.58
2023-02-13T08:11:55.455Z,23.20
2023-02-13T08:14:23.991Z,21.62
2023-02-13T08:16:52.602Z,27.42
2023-02-13T08:19:20.866Z,28.95
2023-02-13T08:21:48.239Z,35.85
2023-02-13T08:24:16.283Z,45.60
2023-02-13T08:26:43.677Z,27.55
2023-02-13T08:29:11.521Z,22.40
2023-02-13T08:31:39.357Z,24.48
2023-02-13T08:34:06.772Z,22.02
2023-02-13T08:36:34.178Z,22.45
2023-02-13T08:39:01.866Z,20.10
2023-02-13T08:41:29.259Z,25.52
2023-02-13T08:43:56.673Z,21.98
2023-02-13T08:46:24.460Z,23.62
2023-02-13T08:48:51.850Z,26.02
2023-02-13T08:51:19.253Z,23.73
2023-02-13T08:53:46.928Z,23.10
2023-02-13T08:56:14.328Z,22.80
2023-02-13T08:58:41.707Z,21.73
2023-02-13T09:01:09.484Z,23.75
2023-02-13T09:03:37.042Z,25.50
2023-02-13T09:06:04.600Z,25.90
2023-02-13T09:08:32.422Z,27.05
2023-02-13T09:11:02.252Z,24.60
2023-02-13T09:13:30.816Z,24.90
2023-02-13T09:16:02.362Z,24.33
2023-02-13T09:18:29.757Z,27.37
2023-02-13T09:21:03.007Z,27.25
2023-02-13T09:23:32.905Z,25.75
2023-02-13T09:26:04.721Z,26.17
2023-02-13T09:28:34.043Z,28.67
2023-02-13T09:31:16.574Z,28.15
2023-02-13T09:33:45.915Z,26.10
2023-02-13T09:36:15.773Z,27.13
2023-02-13T09:38:44.168Z,24.77
2023-02-13T09:41:36.403Z,24.58
2023-02-13T09:44:36.363Z,25.05
2023-02-13T09:47:17.170Z,33.20
2023-02-13T09:49:50.892Z,26.12
2023-02-13T09:52:18.682Z,25.35
2023-02-13T09:54:46.066Z,27.20
2023-02-13T09:57:31.518Z,24.92
2023-02-13T10:00:23.888Z,26.87
2023-02-13T10:02:57.442Z,27.62
2023-02-13T10:05:46.632Z,26.40
2023-02-13T10:08:26.984Z,29.23
2023-02-13T10:11:09.474Z,27.52
2023-02-13T10:13:45.940Z,32.28
2023-02-13T10:16:19.553Z,27.70
2023-02-13T10:19:08.650Z,25.65
2023-02-13T10:21:42.698Z,23.38
2023-02-13T10:24:22.130Z,26.08
2023-02-13T10:26:49.553Z,26.75
2023-02-13T10:29:46.857Z,28.12
2023-02-13T10:32:17.550Z,28.10
2023-02-13T10:34:46.705Z,26.25
2023-02-13T10:37:20.221Z,25.58
2023-02-13T10:39:50.049Z,25.75
2023-02-13T10:42:25.528Z,24.25
2023-02-13T10:45:14.830Z,21.40
2023-02-13T10:48:18.075Z,20.25
2023-02-13T10:50:59.720Z,22.17
2023-02-13T10:54:09.229Z,20.58
2023-02-13T10:56:55.195Z,23.23
2023-02-13T10:59:25.589Z,20.45
2023-02-13T11:01:57.178Z,18.33
2023-02-13T11:04:24.958Z,21.85
2023-02-13T11:06:55.443Z,20.55
2023-02-13T11:09:23.598Z,16.95
2023-02-13T11:11:51.543Z,18.67
2023-02-13T11:14:24.136Z,12.90
2023-02-13T11:16:55.335Z,13.10
2023-02-13T11:19:29.434Z,12.43
2023-02-13T11:22:13.603Z,12.82
2023-02-13T11:24:43.166Z,11.50
2023-02-13T11:27:13.809Z,11.60
2023-02-13T11:29:56.946Z,13.02
2023-02-13T11:32:32.170Z,10.88
2023-02-13T11:35:27.352Z,14.98
2023-02-13T11:38:10.151Z,10.90
2023-02-13T11:40:38.535Z,13.98
2023-02-13T11:43:06.887Z,9.38
2023-02-13T11:45:34.458Z,12.82
2023-02-13T11:48:09.390Z,12.18
2023-02-13T11:50:37.772Z,12.02
2023-02-13T11:53:08.295Z,11.85
2023-02-13T11:55:40.194Z,14.35
2023-02-13T11:58:10.861Z,10.20
2023-02-13T12:00:41.271Z,10.30
2023-02-13T12:03:21.163Z,13.90
2023-02-13T12:06:15.335Z,12.77
2023-02-13T12:08:46.502Z,13.77
2023-02-13T12:11:35.915Z,12.52
2023-02-13T12:14:03.572Z,13.57
2023-02-13T12:16:38.791Z,13.55
2023-02-13T12:19:13.315Z,12.10
2023-02-13T12:22:28.995Z,13.65
2023-02-13T12:25:26.519Z,16.02
2023-02-13T12:28:12.572Z,13.75
2023-02-13T12:30:58.967Z,13.73
2023-02-13T12:33:55.512Z,12.20
2023-02-13T12:36:23.040Z,13.35
2023-02-13T12:38:53.430Z,12.68
2023-02-13T12:41:36.626Z,13.80
2023-02-13T12:45:00.135Z,14.45
2023-02-13T12:47:36.654Z,14.05
2023-02-13T12:50:07.349Z,12.23
2023-02-13T12:53:16.125Z,11.93
2023-02-13T12:56:08.848Z,9.35
2023-02-13T12:58:57.617Z,11.50
2023-02-13T13:01:51.673Z,10.27
2023-02-13T13:04:22.042Z,9.82
2023-02-13T13:07:08.228Z,8.73
2023-02-13T13:09:38.418Z,11.45
2023-02-13T13:12:15.278Z,9.00
2023-02-13T13:14:54.719Z,7.55
2023-02-13T13:17:53.911Z,7.72
2023-02-13T13:20:29.939Z,8.05
2023-02-13T13:23:24.665Z,10.10
2023-02-13T13:26:01.833Z,7.85
2023-02-13T13:28:41.786Z,7.25
2023-02-13T13:31:10.500Z,5.85
2023-02-13T13:33:41.947Z,6.22
2023-02-13T13:36:21.404Z,7.55
2023-02-13T13:39:03.630Z,8.50
2023-02-13T13:41:51.342Z,5.62
2023-02-13T13:44:37.268Z,8.13
2023-02-13T13:47:15.042Z,6.53
2023-02-13T13:49:52.750Z,7.70
2023-02-13T13:52:29.502Z,9.07
2023-02-13T13:55:00.492Z,7.82
2023-02-13T13:57:34.138Z,8.70
2023-02-13T14:00:29.422Z,7.15
2023-02-13T14:03:22.410Z,9.10
2023-02-13T14:08:37.020Z,12.13
2023-02-13T14:11:04.720Z,9.07
2023-02-13T14:13:37.794Z,11.48
2023-02-13T14:16:09.379Z,11.65
2023-02-13T14:18:38.676Z,11.32
2023-02-13T14:21:06.236Z,9.85
2023-02-13T14:23:42.648Z,13.48
2023-02-13T14:26:19.764Z,12.35
2023-02-13T14:28:49.918Z,10.38
2023-02-13T14:31:24.151Z,12.85
2023-02-13T14:34:05.354Z,13.00
2023-02-13T14:36:34.893Z,11.55
2023-02-13T14:39:23.752Z,10.85
2023-02-13T14:41:51.451Z,11.77
2023-02-13T14:44:39.205Z,16.08
2023-02-13T14:47:36.163Z,18.05
2023-02-13T14:50:04.999Z,18.12
2023-02-13T14:52:40.179Z,13.38
2023-02-13T14:55:14.459Z,15.73
2023-02-13T14:57:49.296Z,14.45
2023-02-13T15:00:25.600Z,16.33
2023-02-13T15:02:56.928Z,18.55
2023-02-13T15:05:33.557Z,19.00
2023-02-13T15:08:14.476Z,14.23
2023-02-13T15:10:46.841Z,14.23
2023-02-13T15:13:23.519Z,14.57
2023-02-13T15:16:06.319Z,12.32
2023-02-13T15:18:46.686Z,15.50
2023-02-13T15:21:18.758Z,13.80
2023-02-13T15:23:50.510Z,13.10
2023-02-13T15:26:23.911Z,14.82
2023-02-13T15:29:25.980Z,14.90
2023-02-13T15:31:54.421Z,14.30
2023-02-13T15:34:28.617Z,12.13
2023-02-13T15:36:56.849Z,19.08
2023-02-13T15:39:29.508Z,15.77
2023-02-13T15:41:59.736Z,13.88
2023-02-13T15:44:38.301Z,11.38
2023-02-13T15:47:17.313Z,15.27
2023-02-13T15:49:50.341Z,17.40
2023-02-13T15:52:38.264Z,21.77
2023-02-13T15:55:06.225Z,17.65
2023-02-13T15:57:33.997Z,14.98
2023-02-13T16:00:03.022Z,14.60
2023-02-13T16:02:46.300Z,13.13
2023-02-13T16:05:14.938Z,12.23
2023-02-13T16:07:53.319Z,14.10
2023-02-13T16:10:35.057Z,14.82
2023-02-13T16:13:05.013Z,17.65
2023-02-13T16:15:34.958Z,13.55
2023-02-13T16:18:03.939Z,13.93
2023-02-13T16:20:33.042Z,12.25
2023-02-13T16:23:18.145Z,16.10
2023-02-13T16:25:47.379Z,14.23
2023-02-13T16:28:23.822Z,12.95
2023-02-13T16:30:57.898Z,16.45
2023-02-13T16:33:30.700Z,19.98
2023-02-13T16:36:00.133Z,17.23
2023-02-13T16:38:30.992Z,13.23
2023-02-13T16:41:01.026Z,16.42
2023-02-13T16:43:39.137Z,13.80
2023-02-13T16:46:19.383Z,10.85
2023-02-13T16:48:56.081Z,11.18
2023-02-13T16:51:38.464Z,9.40
2023-02-13T16:54:16.528Z,14.13
2023-02-13T16:56:52.948Z,12.07
2023-02-13T16:59:44.233Z,11.88
2023-02-13T17:02:20.749Z,19.45
2023-02-13T17:04:52.813Z,14.35
2023-02-13T17:07:33.038Z,15.27
2023-02-13T17:10:17.679Z,17.42
2023-02-13T17:12:45.762Z,19.40
2023-02-13T17:15:16.498Z,20.12
2023-02-13T17:17:44.589Z,17.30
2023-02-13T17:20:18.008Z,19.12
2023-02-13T17:22:47.788Z,24.55
2023-02-13T17:25:21.785Z,20.70
2023-02-13T17:27:50.888Z,18.05
2023-02-13T17:30:24.245Z,24.02
2023-02-13T17:32:59.726Z,20.10
2023-02-13T17:35:27.167Z,24.37
2023-02-13T17:37:54.824Z,22.50
2023-02-13T17:40:23.713Z,25.23
2023-02-13T17:42:53.876Z,21.52
2023-02-13T17:45:24.228Z,23.50
2023-02-13T17:47:51.701Z,24.12
2023-02-13T17:50:19.838Z,27.60
2023-02-13T17:52:48.980Z,24.02
2023-02-13T17:55:24.993Z,29.27
2023-02-13T17:57:53.723Z,31.05
2023-02-13T18:00:21.451Z,32.40
2023-02-13T18:02:50.274Z,35.22
2023-02-13T18:05:18.714Z,40.92
2023-02-13T18:07:46.929Z,36.80
2023-02-13T18:10:19.741Z,39.22
2023-02-13T18:12:48.376Z,40.40
2023-02-13T18:15:16.440Z,37.45
2023-02-13T18:17:43.923Z,41.30
2023-02-13T18:20:14.173Z,36.63
2023-02-13T18:22:42.225Z,35.40
2023-02-13T18:25:10.128Z,36.17
2023-02-13T18:27:37.531Z,35.30
2023-02-13T18:30:06.568Z,33.65
2023-02-13T18:32:34.054Z,32.17
2023-02-13T18:35:02.500Z,32.28
2023-02-13T18:37:30.457Z,33.95
2023-02-13T18:39:57.934Z,31.70
2023-02-13T18:42:26.248Z,32.20
2023-02-13T18:44:53.881Z,31.37
2023-02-13T18:47:21.288Z,30.85
2023-02-13T18:49:48.637Z,33.22
2023-02-13T18:52:16.359Z,34.88
2023-02-13T18:54:43.782Z,34.45
2023-02-13T18:57:11.538Z,37.78
2023-02-13T18:59:39.469Z,37.33
2023-02-13T19:02:07.036Z,38.13
2023-02-13T19:04:35.776Z,39.17
2023-02-13T19:07:03.516Z,36.40
2023-02-13T19:09:30.938Z,33.47
2023-02-13T19:11:58.394Z,31.17
2023-02-13T19:14:26.925Z,36.35
2023-02-13T19:16:54.467Z,33.50
2023-02-13T19:19:21.974Z,38.35
2023-02-13T19:21:49.680Z,35.42
2023-02-13T19:24:17.118Z,36.30
2023-02-13T19:26:44.723Z,41.13
2023-02-13T19:29:12.813Z,41.55
2023-02-13T19:31:40.387Z,44.63
2023-02-13T19:34:07.843Z,45.33
2023-02-13T19:36:35.508Z,52.85
2023-02-13T19:39:06.255Z,58.47
2023-02-13T19:41:33.692Z,52.00
2023-02-13T19:44:01.742Z,50.67
2023-02-13T19:46:30.629Z,46.10
2023-02-13T19:48:58.548Z,44.70
2023-02-13T19:51:28.425Z,40.60
2023-02-13T19:53:57.584Z,43.67
2023-02-13T19:56:27.004Z,44.55
2023-02-13T19:58:55.307Z,48.03
2023-02-13T20:01:24.730Z,42.08
2023-02-13T20:03:53.114Z,47.50
2023-02-13T20:06:39.272Z,40.47
2023-02-13T20:09:10.278Z,39.22
2023-02-13T20:11:39.019Z,41.63
2023-02-13T20:14:11.390Z,37.97
2023-02-13T20:16:39.281Z,39.58
2023-02-13T20:19:09.608Z,40.50
2023-02-13T20:21:38.093Z,41.75
2023-02-13T20:24:05.849Z,42.25
2023-02-13T20:26:34.103Z,50.80
2023-02-13T20:29:02.088Z,46.83
2023-02-13T20:31:32.679Z,45.85
2023-02-13T20:34:00.780Z,75.43
2023-02-13T20:36:30.458Z,57.47
2023-02-13T20:39:00.651Z,45.97
2023-02-13T20:41:31.587Z,42.28
2023-02-13T20:44:00.914Z,53.95
2023-02-13T20:46:32.598Z,53.95
2023-02-13T20:49:00.176Z,49.25
2023-02-13T20:51:28.041Z,42.30
2023-02-13T20:53:56.306Z,46.63
2023-02-13T20:56:25.000Z,45.67
2023-02-13T20:58:53.612Z,38.05
2023-02-13T21:01:28.564Z,44.42
2023-02-13T21:03:57.121Z,37.25
2023-02-13T21:06:27.608Z,37.05
2023-02-13T21:08:55.311Z,37.22
2023-02-13T21:11:23.607Z,36.47
2023-02-13T21:13:51.416Z,36.33
2023-02-13T21:16:21.604Z,34.42
2023-02-13T21:18:50.801Z,33.05
2023-02-13T21:21:19.374Z,33.45
2023-02-13T21:23:47.291Z,31.62
2023-02-13T21:26:16.567Z,34.22
2023-02-13T21:28:46.471Z,28.87
2023-02-13T21:31:17.440Z,31.62
2023-02-13T21:33:45.604Z,29.75
2023-02-13T21:36:13.399Z,28.52
2023-02-13T21:38:42.385Z,28.83
2023-02-13T21:41:12.890Z,27.85
2023-02-13T21:43:42.088Z,26.98
2023-02-13T21:46:12.298Z,31.02
2023-02-13T21:48:40.766Z,33.50
2023-02-13T21:51:10.054Z,32.65
2023-02-13T21:53:38.152Z,30.40
2023-02-13T21:56:07.974Z,27.48
2023-02-13T21:58:36.475Z,27.95
2023-02-13T22:01:17.466Z,32.35
2023-02-13T22:03:53.793Z,35.13
2023-02-13T22:06:21.744Z,28.08
2023-02-13T22:08:49.388Z,35.75
2023-02-13T22:11:18.446Z,37.88
2023-02-13T22:13:45.825Z,34.30
2023-02-13T22:16:14.935Z,37.63
2023-02-13T22:18:44.282Z,35.03
2023-02-13T22:21:14.370Z,35.65
2023-02-13T22:23:43.187Z,33.35
2023-02-13T22:26:26.608Z,32.33
2023-02-13T22:28:55.602Z,33.70
2023-02-13T22:31:25.677Z,27.75
2023-02-13T22:34:03.290Z,29.37
2023-02-13T22:36:33.663Z,28.00
2023-02-13T22:39:01.142Z,29.52
2023-02-13T22:41:28.798Z,32.58
2023-02-13T22:43:57.277Z,32.38
2023-02-13T22:46:27.262Z,33.53
2023-02-13T22:48:54.761Z,30.92
2023-02-13T22:51:25.364Z,32.25
2023-02-13T22:53:56.602Z,27.52
2023-02-13T22:56:25.216Z,26.60
2023-02-13T22:58:52.678Z,24.23
2023-02-13T23:01:21.267Z,19.10
2023-02-13T23:03:49.440Z,15.32
2023-02-13T23:06:17.409Z,18.37
2023-02-13T23:08:45.445Z,15.90
2023-02-13T23:11:34.138Z,18.17
2023-02-13T23:14:01.856Z,18.55
2023-02-13T23:16:53.252Z,16.17
2023-02-13T23:19:21.618Z,14.95
2023-02-13T23:21:49.422Z,16.33
2023-02-13T23:24:17.359Z,15.05
2023-02-13T23:26:44.793Z,15.70
2023-02-13T23:29:12.579Z,16.35
2023-02-13T23:31:40.161Z,17.75
2023-02-13T23:34:07.978Z,15.77
2023-02-13T23:36:35.609Z,16.35
2023-02-13T23:39:03.322Z,15.18
2023-02-13T23:41:30.735Z,16.52
2023-02-13T23:43:58.434Z,16.33
2023-02-13T23:46:25.978Z,16.15
2023-02-13T23:48:53.396Z,17.52
2023-02-13T23:51:23.084Z,15.80
2023-02-13T23:53:53.098Z,16.50
2023-02-13T23:56:22.093Z,18.05
2023-02-13T23:58:49.449Z,15.63
